sensor_id;sensor_type;location;lat;lon;timestamp;P1;durP1;ratioP1;P2;durP2;ratioP2
16403;SDS011;8311;50.158;8.642;2024-02-26T00:02:49;12.63;;;3.55;;
16403;SDS011;8311;50.158;8.642;2024-02-26T00:05:42;18.85;;;4.43;;
16403;SDS011;8311;50.158;8.642;2024-02-26T00:08:38;10.77;;;3.65;;
16403;SDS011;8311;50.158;8.642;2024-02-26T00:11:32;12.82;;;3.28;;
16403;SDS011;8311;50.158;8.642;2024-02-26T00:14:25;12.23;;;3.55;;
16403;SDS011;8311;50.158;8.642;2024-02-26T00:17:17;10.00;;;3.97;;
16403;SDS011;8311;50.158;8.642;2024-02-26T00:20:11;12.77;;;3.13;;
16403;SDS011;8311;50.158;8.642;2024-02-26T00:23:04;10.48;;;3.15;;
16403;SDS011;8311;50.158;8.642;2024-02-26T00:26:00;11.32;;;3.08;;
16403;SDS011;8311;50.158;8.642;2024-02-26T00:28:52;10.38;;;3.45;;
16403;SDS011;8311;50.158;8.642;2024-02-26T00:31:46;12.27;;;3.33;;
16403;SDS011;8311;50.158;8.642;2024-02-26T00:34:38;15.13;;;3.67;;
16403;SDS011;8311;50.158;8.642;2024-02-26T00:37:32;9.63;;;3.50;;
16403;SDS011;8311;50.158;8.642;2024-02-26T00:40:25;9.07;;;3.38;;
16403;SDS011;8311;50.158;8.642;2024-02-26T00:43:19;8.85;;;3.00;;
16403;SDS011;8311;50.158;8.642;2024-02-26T00:46:12;13.18;;;2.92;;
16403;SDS011;8311;50.158;8.642;2024-02-26T00:49:06;12.18;;;3.30;;
16403;SDS011;8311;50.158;8.642;2024-02-26T00:51:58;10.95;;;3.65;;
16403;SDS011;8311;50.158;8.642;2024-02-26T00:54:53;10.35;;;2.90;;
16403;SDS011;8311;50.158;8.642;2024-02-26T00:57:45;13.45;;;3.10;;
16403;SDS011;8311;50.158;8.642;2024-02-26T01:00:40;10.40;;;2.78;;
16403;SDS011;8311;50.158;8.642;2024-02-26T01:03:33;10.68;;;2.97;;
16403;SDS011;8311;50.158;8.642;2024-02-26T01:06:26;9.38;;;3.10;;
16403;SDS011;8311;50.158;8.642;2024-02-26T01:09:20;10.65;;;4.28;;
16403;SDS011;8311;50.158;8.642;2024-02-26T01:12:13;11.05;;;3.40;;
16403;SDS011;8311;50.158;8.642;2024-02-26T01:15:06;7.57;;;3.10;;
16403;SDS011;8311;50.158;8.642;2024-02-26T01:18:03;12.98;;;3.30;;
16403;SDS011;8311;50.158;8.642;2024-02-26T01:20:58;9.20;;;3.20;;
16403;SDS011;8311;50.158;8.642;2024-02-26T01:23:50;13.15;;;3.33;;
16403;SDS011;8311;50.158;8.642;2024-02-26T01:26:43;8.32;;;3.13;;
16403;SDS011;8311;50.158;8.642;2024-02-26T01:29:36;15.13;;;3.50;;
16403;SDS011;8311;50.158;8.642;2024-02-26T01:32:30;8.90;;;3.15;;
16403;SDS011;8311;50.158;8.642;2024-02-26T01:35:25;6.65;;;2.72;;
16403;SDS011;8311;50.158;8.642;2024-02-26T01:38:19;7.97;;;2.78;;
16403;SDS011;8311;50.158;8.642;2024-02-26T01:41:13;10.15;;;3.35;;
16403;SDS011;8311;50.158;8.642;2024-02-26T01:44:05;7.82;;;3.28;;
16403;SDS011;8311;50.158;8.642;2024-02-26T01:46:58;8.30;;;2.70;;
16403;SDS011;8311;50.158;8.642;2024-02-26T01:49:55;11.93;;;3.03;;
16403;SDS011;8311;50.158;8.642;2024-02-26T01:52:51;13.85;;;3.38;;
16403;SDS011;8311;50.158;8.642;2024-02-26T01:55:47;7.75;;;3.17;;
16403;SDS011;8311;50.158;8.642;2024-02-26T01:58:39;13.65;;;3.28;;
16403;SDS011;8311;50.158;8.642;2024-02-26T02:01:35;6.55;;;2.67;;
16403;SDS011;8311;50.158;8.642;2024-02-26T02:04:30;6.78;;;3.20;;
16403;SDS011;8311;50.158;8.642;2024-02-26T02:07:27;8.85;;;2.70;;
16403;SDS011;8311;50.158;8.642;2024-02-26T02:10:22;11.55;;;3.03;;
16403;SDS011;8311;50.158;8.642;2024-02-26T02:13:16;7.07;;;2.50;;
16403;SDS011;8311;50.158;8.642;2024-02-26T02:16:09;8.32;;;2.85;;
16403;SDS011;8311;50.158;8.642;2024-02-26T02:19:03;11.02;;;2.95;;
16403;SDS011;8311;50.158;8.642;2024-02-26T02:21:57;7.20;;;2.97;;
16403;SDS011;8311;50.158;8.642;2024-02-26T02:24:51;9.65;;;3.15;;
16403;SDS011;8311;50.158;8.642;2024-02-26T02:27:45;6.47;;;2.90;;
16403;SDS011;8311;50.158;8.642;2024-02-26T02:30:37;9.40;;;3.10;;
16403;SDS011;8311;50.158;8.642;2024-02-26T02:33:31;8.00;;;2.53;;
16403;SDS011;8311;50.158;8.642;2024-02-26T02:36:25;6.70;;;2.60;;
16403;SDS011;8311;50.158;8.642;2024-02-26T02:39:21;7.95;;;3.00;;
16403;SDS011;8311;50.158;8.642;2024-02-26T02:42:15;9.32;;;2.78;;
16403;SDS011;8311;50.158;8.642;2024-02-26T02:45:09;10.55;;;2.40;;
16403;SDS011;8311;50.158;8.642;2024-02-26T02:48:03;8.38;;;2.90;;
16403;SDS011;8311;50.158;8.642;2024-02-26T02:50:57;6.55;;;2.60;;
16403;SDS011;8311;50.158;8.642;2024-02-26T02:53:50;7.78;;;3.10;;
16403;SDS011;8311;50.158;8.642;2024-02-26T02:56:44;10.07;;;3.40;;
16403;SDS011;8311;50.158;8.642;2024-02-26T02:59:38;8.80;;;3.15;;
16403;SDS011;8311;50.158;8.642;2024-02-26T03:02:32;9.45;;;2.65;;
16403;SDS011;8311;50.158;8.642;2024-02-26T03:05:26;8.07;;;2.70;;
16403;SDS011;8311;50.158;8.642;2024-02-26T03:08:22;7.85;;;2.30;;
16403;SDS011;8311;50.158;8.642;2024-02-26T03:11:15;8.90;;;3.15;;
16403;SDS011;8311;50.158;8.642;2024-02-26T03:14:10;12.23;;;2.88;;
16403;SDS011;8311;50.158;8.642;2024-02-26T03:17:04;11.13;;;2.63;;
16403;SDS011;8311;50.158;8.642;2024-02-26T03:19:59;7.47;;;2.40;;
16403;SDS011;8311;50.158;8.642;2024-02-26T03:22:55;9.68;;;2.80;;
16403;SDS011;8311;50.158;8.642;2024-02-26T03:25:48;10.48;;;2.55;;
16403;SDS011;8311;50.158;8.642;2024-02-26T03:28:41;6.22;;;2.47;;
16403;SDS011;8311;50.158;8.642;2024-02-26T03:31:35;3.03;;;1.42;;
16403;SDS011;8311;50.158;8.642;2024-02-26T03:34:29;3.85;;;1.92;;
16403;SDS011;8311;50.158;8.642;2024-02-26T03:37:22;5.65;;;1.60;;
16403;SDS011;8311;50.158;8.642;2024-02-26T03:40:15;5.53;;;2.05;;
16403;SDS011;8311;50.158;8.642;2024-02-26T03:43:12;6.18;;;2.40;;
16403;SDS011;8311;50.158;8.642;2024-02-26T03:46:06;9.63;;;2.53;;
16403;SDS011;8311;50.158;8.642;2024-02-26T03:49:02;8.65;;;2.65;;
16403;SDS011;8311;50.158;8.642;2024-02-26T03:51:56;8.10;;;2.40;;
16403;SDS011;8311;50.158;8.642;2024-02-26T03:54:49;5.00;;;1.90;;
16403;SDS011;8311;50.158;8.642;2024-02-26T03:57:41;5.93;;;2.30;;
16403;SDS011;8311;50.158;8.642;2024-02-26T04:00:36;6.57;;;2.20;;
16403;SDS011;8311;50.158;8.642;2024-02-26T04:03:29;6.45;;;2.10;;
16403;SDS011;8311;50.158;8.642;2024-02-26T04:06:24;7.05;;;2.05;;
16403;SDS011;8311;50.158;8.642;2024-02-26T04:09:18;7.32;;;2.30;;
16403;SDS011;8311;50.158;8.642;2024-02-26T04:12:11;4.80;;;2.25;;
16403;SDS011;8311;50.158;8.642;2024-02-26T04:15:05;8.73;;;2.05;;
16403;SDS011;8311;50.158;8.642;2024-02-26T04:17:59;6.18;;;2.33;;
16403;SDS011;8311;50.158;8.642;2024-02-26T04:20:52;8.23;;;2.35;;
16403;SDS011;8311;50.158;8.642;2024-02-26T04:23:47;7.70;;;2.55;;
16403;SDS011;8311;50.158;8.642;2024-02-26T04:26:40;7.55;;;2.10;;
16403;SDS011;8311;50.158;8.642;2024-02-26T04:29:33;8.27;;;2.13;;
16403;SDS011;8311;50.158;8.642;2024-02-26T04:32:29;11.95;;;2.72;;
16403;SDS011;8311;50.158;8.642;2024-02-26T04:35:21;7.55;;;2.00;;
16403;SDS011;8311;50.158;8.642;2024-02-26T04:38:15;6.57;;;2.65;;
16403;SDS011;8311;50.158;8.642;2024-02-26T04:41:09;7.78;;;2.50;;
16403;SDS011;8311;50.158;8.642;2024-02-26T04:44:02;9.98;;;2.53;;
16403;SDS011;8311;50.158;8.642;2024-02-26T04:46:55;6.35;;;2.13;;
16403;SDS011;8311;50.158;8.642;2024-02-26T04:49:48;9.45;;;2.22;;
16403;SDS011;8311;50.158;8.642;2024-02-26T04:52:42;9.57;;;3.20;;
16403;SDS011;8311;50.158;8.642;2024-02-26T04:55:36;6.97;;;2.17;;
16403;SDS011;8311;50.158;8.642;2024-02-26T04:58:30;8.75;;;2.40;;
16403;SDS011;8311;50.158;8.642;2024-02-26T05:01:25;8.43;;;2.10;;
16403;SDS011;8311;50.158;8.642;2024-02-26T05:04:18;5.35;;;2.28;;
16403;SDS011;8311;50.158;8.642;2024-02-26T05:07:13;6.57;;;2.35;;
16403;SDS011;8311;50.158;8.642;2024-02-26T05:10:09;9.27;;;2.00;;
16403;SDS011;8311;50.158;8.642;2024-02-26T05:13:03;5.30;;;2.28;;
16403;SDS011;8311;50.158;8.642;2024-02-26T05:15:57;11.32;;;2.33;;
16403;SDS011;8311;50.158;8.642;2024-02-26T05:18:51;7.22;;;2.20;;
16403;SDS011;8311;50.158;8.642;2024-02-26T05:21:44;5.30;;;2.20;;
16403;SDS011;8311;50.158;8.642;2024-02-26T05:24:40;8.57;;;2.30;;
16403;SDS011;8311;50.158;8.642;2024-02-26T05:27:33;10.00;;;2.65;;
16403;SDS011;8311;50.158;8.642;2024-02-26T05:30:26;5.88;;;2.40;;
16403;SDS011;8311;50.158;8.642;2024-02-26T05:33:22;7.07;;;2.40;;
16403;SDS011;8311;50.158;8.642;2024-02-26T05:36:17;9.13;;;2.72;;
16403;SDS011;8311;50.158;8.642;2024-02-26T05:39:13;6.97;;;2.22;;
16403;SDS011;8311;50.158;8.642;2024-02-26T05:42:11;6.95;;;2.35;;
16403;SDS011;8311;50.158;8.642;2024-02-26T05:45:05;8.02;;;2.47;;
16403;SDS011;8311;50.158;8.642;2024-02-26T05:47:59;10.68;;;2.40;;
16403;SDS011;8311;50.158;8.642;2024-02-26T05:50:55;8.20;;;2.20;;
16403;SDS011;8311;50.158;8.642;2024-02-26T05:53:49;13.35;;;2.92;;
16403;SDS011;8311;50.158;8.642;2024-02-26T05:56:46;7.18;;;2.10;;
16403;SDS011;8311;50.158;8.642;2024-02-26T05:59:40;5.00;;;1.90;;
16403;SDS011;8311;50.158;8.642;2024-02-26T06:02:36;9.60;;;2.15;;
16403;SDS011;8311;50.158;8.642;2024-02-26T06:05:29;3.72;;;1.75;;
16403;SDS011;8311;50.158;8.642;2024-02-26T06:08:24;5.47;;;1.70;;
16403;SDS011;8311;50.158;8.642;2024-02-26T06:11:17;3.40;;;1.27;;
16403;SDS011;8311;50.158;8.642;2024-02-26T06:14:11;3.83;;;1.17;;
16403;SDS011;8311;50.158;8.642;2024-02-26T06:17:06;3.08;;;1.75;;
16403;SDS011;8311;50.158;8.642;2024-02-26T06:20:00;3.80;;;1.50;;
16403;SDS011;8311;50.158;8.642;2024-02-26T06:22:56;5.05;;;1.67;;
16403;SDS011;8311;50.158;8.642;2024-02-26T06:25:51;16.15;;;1.92;;
16403;SDS011;8311;50.158;8.642;2024-02-26T06:28:44;5.93;;;2.17;;
16403;SDS011;8311;50.158;8.642;2024-02-26T06:31:37;4.40;;;1.70;;
16403;SDS011;8311;50.158;8.642;2024-02-26T06:34:30;3.10;;;1.65;;
16403;SDS011;8311;50.158;8.642;2024-02-26T06:37:24;7.88;;;2.10;;
16403;SDS011;8311;50.158;8.642;2024-02-26T06:40:18;4.45;;;1.85;;
16403;SDS011;8311;50.158;8.642;2024-02-26T06:43:12;8.68;;;2.05;;
16403;SDS011;8311;50.158;8.642;2024-02-26T06:46:06;3.88;;;2.03;;
16403;SDS011;8311;50.158;8.642;2024-02-26T06:49:00;3.78;;;1.70;;
16403;SDS011;8311;50.158;8.642;2024-02-26T06:51:54;5.95;;;1.75;;
16403;SDS011;8311;50.158;8.642;2024-02-26T06:54:48;4.88;;;1.65;;
16403;SDS011;8311;50.158;8.642;2024-02-26T06:57:42;3.95;;;2.05;;
16403;SDS011;8311;50.158;8.642;2024-02-26T07:00:37;6.65;;;2.30;;
16403;SDS011;8311;50.158;8.642;2024-02-26T07:03:30;5.28;;;1.85;;
16403;SDS011;8311;50.158;8.642;2024-02-26T07:06:25;4.18;;;1.88;;
16403;SDS011;8311;50.158;8.642;2024-02-26T07:09:18;3.35;;;1.70;;
16403;SDS011;8311;50.158;8.642;2024-02-26T07:12:11;6.40;;;2.05;;
16403;SDS011;8311;50.158;8.642;2024-02-26T07:15:04;3.85;;;1.92;;
16403;SDS011;8311;50.158;8.642;2024-02-26T07:18:01;5.18;;;2.00;;
16403;SDS011;8311;50.158;8.642;2024-02-26T07:20:55;6.35;;;1.88;;
16403;SDS011;8311;50.158;8.642;2024-02-26T07:23:48;3.72;;;1.50;;
16403;SDS011;8311;50.158;8.642;2024-02-26T07:26:42;6.10;;;1.80;;
16403;SDS011;8311;50.158;8.642;2024-02-26T07:29:34;4.60;;;2.03;;
16403;SDS011;8311;50.158;8.642;2024-02-26T07:32:28;4.20;;;1.70;;
16403;SDS011;8311;50.158;8.642;2024-02-26T07:35:22;5.85;;;1.77;;
16403;SDS011;8311;50.158;8.642;2024-02-26T07:38:16;4.53;;;2.08;;
16403;SDS011;8311;50.158;8.642;2024-02-26T07:41:21;3.17;;;1.80;;
16403;SDS011;8311;50.158;8.642;2024-02-26T07:44:15;10.15;;;2.13;;
16403;SDS011;8311;50.158;8.642;2024-02-26T07:47:08;5.55;;;1.52;;
16403;SDS011;8311;50.158;8.642;2024-02-26T07:50:01;3.92;;;1.90;;
16403;SDS011;8311;50.158;8.642;2024-02-26T07:52:55;6.13;;;1.90;;
16403;SDS011;8311;50.158;8.642;2024-02-26T07:55:50;4.40;;;1.83;;
16403;SDS011;8311;50.158;8.642;2024-02-26T07:58:43;6.55;;;1.73;;
16403;SDS011;8311;50.158;8.642;2024-02-26T08:01:37;3.42;;;1.60;;
16403;SDS011;8311;50.158;8.642;2024-02-26T08:04:33;4.60;;;1.58;;
16403;SDS011;8311;50.158;8.642;2024-02-26T08:07:27;6.70;;;2.00;;
16403;SDS011;8311;50.158;8.642;2024-02-26T08:10:23;2.83;;;1.67;;
16403;SDS011;8311;50.158;8.642;2024-02-26T08:13:16;3.53;;;1.85;;
16403;SDS011;8311;50.158;8.642;2024-02-26T08:16:09;4.25;;;1.85;;
16403;SDS011;8311;50.158;8.642;2024-02-26T08:19:03;3.72;;;1.80;;
16403;SDS011;8311;50.158;8.642;2024-02-26T08:21:58;5.88;;;1.70;;
16403;SDS011;8311;50.158;8.642;2024-02-26T08:24:55;6.53;;;2.45;;
16403;SDS011;8311;50.158;8.642;2024-02-26T08:27:50;7.70;;;2.10;;
16403;SDS011;8311;50.158;8.642;2024-02-26T08:30:43;5.30;;;2.20;;
16403;SDS011;8311;50.158;8.642;2024-02-26T08:33:37;7.85;;;2.42;;
16403;SDS011;8311;50.158;8.642;2024-02-26T08:36:30;7.28;;;2.20;;
16403;SDS011;8311;50.158;8.642;2024-02-26T08:39:25;5.50;;;2.03;;
16403;SDS011;8311;50.158;8.642;2024-02-26T08:42:18;4.60;;;1.75;;
16403;SDS011;8311;50.158;8.642;2024-02-26T08:45:14;6.47;;;2.00;;
16403;SDS011;8311;50.158;8.642;2024-02-26T08:48:07;3.28;;;1.60;;
16403;SDS011;8311;50.158;8.642;2024-02-26T08:51:04;3.25;;;1.80;;
16403;SDS011;8311;50.158;8.642;2024-02-26T08:53:59;24.05;;;3.80;;
16403;SDS011;8311;50.158;8.642;2024-02-26T08:56:53;9.60;;;2.72;;
16403;SDS011;8311;50.158;8.642;2024-02-26T08:59:46;8.50;;;2.28;;
16403;SDS011;8311;50.158;8.642;2024-02-26T09:02:40;12.35;;;2.10;;
16403;SDS011;8311;50.158;8.642;2024-02-26T09:05:35;8.80;;;2.60;;
16403;SDS011;8311;50.158;8.642;2024-02-26T09:08:28;14.18;;;2.42;;
16403;SDS011;8311;50.158;8.642;2024-02-26T09:11:22;6.35;;;1.73;;
16403;SDS011;8311;50.158;8.642;2024-02-26T09:14:16;10.70;;;2.42;;
16403;SDS011;8311;50.158;8.642;2024-02-26T09:17:09;11.30;;;2.15;;
16403;SDS011;8311;50.158;8.642;2024-02-26T09:20:04;6.43;;;1.80;;
16403;SDS011;8311;50.158;8.642;2024-02-26T09:23:00;8.63;;;2.30;;
16403;SDS011;8311;50.158;8.642;2024-02-26T09:25:54;6.90;;;2.55;;
16403;SDS011;8311;50.158;8.642;2024-02-26T09:28:47;7.65;;;2.20;;
16403;SDS011;8311;50.158;8.642;2024-02-26T09:31:40;6.93;;;2.30;;
16403;SDS011;8311;50.158;8.642;2024-02-26T09:34:33;8.40;;;2.30;;
16403;SDS011;8311;50.158;8.642;2024-02-26T09:37:27;4.88;;;2.08;;
16403;SDS011;8311;50.158;8.642;2024-02-26T09:40:20;6.43;;;1.98;;
16403;SDS011;8311;50.158;8.642;2024-02-26T09:43:13;7.78;;;1.90;;
16403;SDS011;8311;50.158;8.642;2024-02-26T09:46:07;6.43;;;2.17;;
16403;SDS011;8311;50.158;8.642;2024-02-26T09:49:01;7.57;;;2.42;;
16403;SDS011;8311;50.158;8.642;2024-02-26T09:51:55;4.25;;;2.17;;
16403;SDS011;8311;50.158;8.642;2024-02-26T09:54:51;4.00;;;1.95;;
16403;SDS011;8311;50.158;8.642;2024-02-26T09:57:45;6.72;;;1.80;;
16403;SDS011;8311;50.158;8.642;2024-02-26T10:00:40;6.35;;;1.98;;
16403;SDS011;8311;50.158;8.642;2024-02-26T10:03:34;4.57;;;1.63;;
16403;SDS011;8311;50.158;8.642;2024-02-26T10:06:31;5.38;;;2.03;;
16403;SDS011;8311;50.158;8.642;2024-02-26T10:09:24;4.53;;;1.90;;
16403;SDS011;8311;50.158;8.642;2024-02-26T10:12:18;3.35;;;1.77;;
16403;SDS011;8311;50.158;8.642;2024-02-26T10:15:12;6.93;;;1.70;;
16403;SDS011;8311;50.158;8.642;2024-02-26T10:18:05;3.63;;;1.98;;
16403;SDS011;8311;50.158;8.642;2024-02-26T10:21:00;4.55;;;1.55;;
16403;SDS011;8311;50.158;8.642;2024-02-26T10:23:54;5.95;;;2.03;;
16403;SDS011;8311;50.158;8.642;2024-02-26T10:26:48;4.88;;;1.98;;
16403;SDS011;8311;50.158;8.642;2024-02-26T10:29:42;4.68;;;1.92;;
16403;SDS011;8311;50.158;8.642;2024-02-26T10:32:38;3.50;;;1.48;;
16403;SDS011;8311;50.158;8.642;2024-02-26T10:35:32;7.13;;;1.60;;
16403;SDS011;8311;50.158;8.642;2024-02-26T10:38:27;6.05;;;1.60;;
16403;SDS011;8311;50.158;8.642;2024-02-26T10:41:20;4.07;;;1.88;;
16403;SDS011;8311;50.158;8.642;2024-02-26T10:44:15;3.38;;;1.60;;
16403;SDS011;8311;50.158;8.642;2024-02-26T10:47:11;4.43;;;1.65;;
16403;SDS011;8311;50.158;8.642;2024-02-26T10:50:07;4.00;;;1.80;;
16403;SDS011;8311;50.158;8.642;2024-02-26T10:53:01;4.75;;;1.98;;
16403;SDS011;8311;50.158;8.642;2024-02-26T10:55:57;6.45;;;1.60;;
16403;SDS011;8311;50.158;8.642;2024-02-26T10:58:53;3.72;;;1.85;;
16403;SDS011;8311;50.158;8.642;2024-02-26T11:01:49;4.03;;;1.65;;
16403;SDS011;8311;50.158;8.642;2024-02-26T11:04:44;5.05;;;1.90;;
16403;SDS011;8311;50.158;8.642;2024-02-26T11:07:40;5.38;;;1.90;;
16403;SDS011;8311;50.158;8.642;2024-02-26T11:10:34;3.25;;;1.70;;
16403;SDS011;8311;50.158;8.642;2024-02-26T11:13:28;4.88;;;2.08;;
16403;SDS011;8311;50.158;8.642;2024-02-26T11:16:28;4.63;;;2.10;;
16403;SDS011;8311;50.158;8.642;2024-02-26T11:19:22;3.53;;;1.58;;
16403;SDS011;8311;50.158;8.642;2024-02-26T11:22:20;3.30;;;1.63;;
16403;SDS011;8311;50.158;8.642;2024-02-26T11:25:16;5.70;;;2.08;;
16403;SDS011;8311;50.158;8.642;2024-02-26T11:28:10;7.10;;;1.60;;
16403;SDS011;8311;50.158;8.642;2024-02-26T11:31:05;3.10;;;1.55;;
16403;SDS011;8311;50.158;8.642;2024-02-26T11:34:00;2.55;;;1.42;;
16403;SDS011;8311;50.158;8.642;2024-02-26T11:36:54;4.47;;;2.00;;
16403;SDS011;8311;50.158;8.642;2024-02-26T11:39:52;3.72;;;2.13;;
16403;SDS011;8311;50.158;8.642;2024-02-26T11:42:45;3.63;;;1.73;;
16403;SDS011;8311;50.158;8.642;2024-02-26T11:45:49;3.45;;;1.92;;
16403;SDS011;8311;50.158;8.642;2024-02-26T11:48:44;3.03;;;1.88;;
16403;SDS011;8311;50.158;8.642;2024-02-26T11:51:40;4.82;;;2.33;;
16403;SDS011;8311;50.158;8.642;2024-02-26T11:57:50;4.85;;;1.90;;
16403;SDS011;8311;50.158;8.642;2024-02-26T12:00:43;4.53;;;2.00;;
16403;SDS011;8311;50.158;8.642;2024-02-26T12:03:36;3.25;;;1.85;;
16403;SDS011;8311;50.158;8.642;2024-02-26T12:06:31;3.08;;;1.88;;
16403;SDS011;8311;50.158;8.642;2024-02-26T12:09:33;6.25;;;1.88;;
16403;SDS011;8311;50.158;8.642;2024-02-26T12:12:28;4.82;;;2.08;;
16403;SDS011;8311;50.158;8.642;2024-02-26T12:15:22;3.03;;;1.85;;
16403;SDS011;8311;50.158;8.642;2024-02-26T12:18:15;3.03;;;1.60;;
16403;SDS011;8311;50.158;8.642;2024-02-26T12:21:11;4.10;;;1.85;;
16403;SDS011;8311;50.158;8.642;2024-02-26T12:24:12;3.47;;;1.83;;
16403;SDS011;8311;50.158;8.642;2024-02-26T12:27:06;3.83;;;1.52;;
16403;SDS011;8311;50.158;8.642;2024-02-26T12:30:00;3.90;;;1.75;;
16403;SDS011;8311;50.158;8.642;2024-02-26T12:32:55;2.70;;;1.75;;
16403;SDS011;8311;50.158;8.642;2024-02-26T12:35:52;2.50;;;1.70;;
16403;SDS011;8311;50.158;8.642;2024-02-26T12:38:45;3.17;;;1.67;;
16403;SDS011;8311;50.158;8.642;2024-02-26T12:41:38;3.83;;;1.85;;
16403;SDS011;8311;50.158;8.642;2024-02-26T12:44:32;3.38;;;1.70;;
16403;SDS011;8311;50.158;8.642;2024-02-26T12:47:27;3.63;;;2.10;;
16403;SDS011;8311;50.158;8.642;2024-02-26T12:50:23;2.35;;;1.77;;
16403;SDS011;8311;50.158;8.642;2024-02-26T12:53:17;2.53;;;1.60;;
16403;SDS011;8311;50.158;8.642;2024-02-26T12:56:11;2.92;;;1.65;;
16403;SDS011;8311;50.158;8.642;2024-02-26T12:59:05;2.55;;;1.80;;
16403;SDS011;8311;50.158;8.642;2024-02-26T13:01:59;3.88;;;1.45;;
16403;SDS011;8311;50.158;8.642;2024-02-26T13:04:58;3.10;;;1.63;;
16403;SDS011;8311;50.158;8.642;2024-02-26T13:07:56;2.38;;;1.65;;
16403;SDS011;8311;50.158;8.642;2024-02-26T13:10:49;3.05;;;1.50;;
16403;SDS011;8311;50.158;8.642;2024-02-26T13:13:47;2.90;;;1.65;;
16403;SDS011;8311;50.158;8.642;2024-02-26T13:16:41;4.55;;;1.83;;
16403;SDS011;8311;50.158;8.642;2024-02-26T13:19:34;3.33;;;1.98;;
16403;SDS011;8311;50.158;8.642;2024-02-26T13:22:31;2.08;;;1.45;;
16403;SDS011;8311;50.158;8.642;2024-02-26T13:25:25;3.38;;;1.60;;
16403;SDS011;8311;50.158;8.642;2024-02-26T13:28:18;3.35;;;1.90;;
16403;SDS011;8311;50.158;8.642;2024-02-26T13:31:12;2.83;;;1.55;;
16403;SDS011;8311;50.158;8.642;2024-02-26T13:34:09;2.60;;;1.63;;
16403;SDS011;8311;50.158;8.642;2024-02-26T13:37:02;3.42;;;1.65;;
16403;SDS011;8311;50.158;8.642;2024-02-26T13:39:59;2.05;;;1.50;;
16403;SDS011;8311;50.158;8.642;2024-02-26T13:42:55;3.05;;;1.65;;
16403;SDS011;8311;50.158;8.642;2024-02-26T13:45:48;2.80;;;1.67;;
16403;SDS011;8311;50.158;8.642;2024-02-26T13:48:42;3.40;;;1.80;;
16403;SDS011;8311;50.158;8.642;2024-02-26T13:51:36;2.03;;;1.45;;
16403;SDS011;8311;50.158;8.642;2024-02-26T13:54:31;2.88;;;1.63;;
16403;SDS011;8311;50.158;8.642;2024-02-26T13:57:27;2.47;;;1.60;;
16403;SDS011;8311;50.158;8.642;2024-02-26T14:00:20;3.15;;;1.63;;
16403;SDS011;8311;50.158;8.642;2024-02-26T14:03:14;1.70;;;1.40;;
16403;SDS011;8311;50.158;8.642;2024-02-26T14:06:08;3.50;;;1.85;;
16403;SDS011;8311;50.158;8.642;2024-02-26T14:09:02;2.50;;;1.70;;
16403;SDS011;8311;50.158;8.642;2024-02-26T14:11:55;2.03;;;1.50;;
16403;SDS011;8311;50.158;8.642;2024-02-26T14:14:51;2.90;;;1.52;;
16403;SDS011;8311;50.158;8.642;2024-02-26T14:17:46;3.13;;;1.60;;
16403;SDS011;8311;50.158;8.642;2024-02-26T14:20:45;2.28;;;1.55;;
16403;SDS011;8311;50.158;8.642;2024-02-26T14:23:38;3.55;;;1.67;;
16403;SDS011;8311;50.158;8.642;2024-02-26T14:26:31;4.35;;;1.40;;
16403;SDS011;8311;50.158;8.642;2024-02-26T14:29:25;2.85;;;1.60;;
16403;SDS011;8311;50.158;8.642;2024-02-26T14:32:20;3.35;;;1.60;;
16403;SDS011;8311;50.158;8.642;2024-02-26T14:35:14;3.10;;;1.40;;
16403;SDS011;8311;50.158;8.642;2024-02-26T14:38:08;2.42;;;1.58;;
16403;SDS011;8311;50.158;8.642;2024-02-26T14:41:01;2.58;;;1.48;;
16403;SDS011;8311;50.158;8.642;2024-02-26T14:43:55;3.47;;;1.63;;
16403;SDS011;8311;50.158;8.642;2024-02-26T14:46:48;2.72;;;1.20;;
16403;SDS011;8311;50.158;8.642;2024-02-26T14:49:43;4.47;;;1.52;;
16403;SDS011;8311;50.158;8.642;2024-02-26T14:52:39;2.05;;;1.30;;
16403;SDS011;8311;50.158;8.642;2024-02-26T14:55:32;4.30;;;1.50;;
16403;SDS011;8311;50.158;8.642;2024-02-26T14:58:27;2.95;;;1.70;;
16403;SDS011;8311;50.158;8.642;2024-02-26T15:01:21;3.63;;;2.00;;
16403;SDS011;8311;50.158;8.642;2024-02-26T15:04:14;3.15;;;1.63;;
16403;SDS011;8311;50.158;8.642;2024-02-26T15:07:08;2.10;;;1.60;;
16403;SDS011;8311;50.158;8.642;2024-02-26T15:10:06;1.73;;;1.45;;
16403;SDS011;8311;50.158;8.642;2024-02-26T15:13:00;1.90;;;1.20;;
16403;SDS011;8311;50.158;8.642;2024-02-26T15:15:53;2.17;;;1.30;;
16403;SDS011;8311;50.158;8.642;2024-02-26T15:18:47;3.95;;;1.50;;
16403;SDS011;8311;50.158;8.642;2024-02-26T15:21:44;2.05;;;1.30;;
16403;SDS011;8311;50.158;8.642;2024-02-26T15:24:38;1.98;;;1.30;;
16403;SDS011;8311;50.158;8.642;2024-02-26T15:27:31;4.18;;;1.50;;
16403;SDS011;8311;50.158;8.642;2024-02-26T15:30:24;2.05;;;1.50;;
16403;SDS011;8311;50.158;8.642;2024-02-26T15:33:18;1.75;;;1.30;;
16403;SDS011;8311;50.158;8.642;2024-02-26T15:36:11;2.53;;;1.40;;
16403;SDS011;8311;50.158;8.642;2024-02-26T15:39:05;2.28;;;1.60;;
16403;SDS011;8311;50.158;8.642;2024-02-26T15:42:01;2.85;;;1.60;;
16403;SDS011;8311;50.158;8.642;2024-02-26T15:44:54;1.80;;;1.33;;
16403;SDS011;8311;50.158;8.642;2024-02-26T15:47:47;3.05;;;1.65;;
16403;SDS011;8311;50.158;8.642;2024-02-26T15:50:43;2.60;;;1.48;;
16403;SDS011;8311;50.158;8.642;2024-02-26T15:53:36;2.35;;;1.40;;
16403;SDS011;8311;50.158;8.642;2024-02-26T15:56:30;2.03;;;1.42;;
16403;SDS011;8311;50.158;8.642;2024-02-26T15:59:25;2.03;;;1.38;;
16403;SDS011;8311;50.158;8.642;2024-02-26T16:02:19;1.67;;;1.27;;
16403;SDS011;8311;50.158;8.642;2024-02-26T16:05:12;1.52;;;1.27;;
16403;SDS011;8311;50.158;8.642;2024-02-26T16:08:08;2.10;;;1.30;;
16403;SDS011;8311;50.158;8.642;2024-02-26T16:11:04;2.08;;;1.48;;
16403;SDS011;8311;50.158;8.642;2024-02-26T16:13:59;2.10;;;1.25;;
16403;SDS011;8311;50.158;8.642;2024-02-26T16:17:01;1.85;;;1.30;;
16403;SDS011;8311;50.158;8.642;2024-02-26T16:20:01;2.58;;;1.42;;
16403;SDS011;8311;50.158;8.642;2024-02-26T16:22:56;1.92;;;1.40;;
16403;SDS011;8311;50.158;8.642;2024-02-26T16:25:56;2.90;;;1.50;;
16403;SDS011;8311;50.158;8.642;2024-02-26T16:28:49;2.55;;;1.25;;
16403;SDS011;8311;50.158;8.642;2024-02-26T16:31:45;1.63;;;1.27;;
16403;SDS011;8311;50.158;8.642;2024-02-26T16:34:42;2.30;;;1.30;;
16403;SDS011;8311;50.158;8.642;2024-02-26T16:37:36;2.75;;;1.80;;
16403;SDS011;8311;50.158;8.642;2024-02-26T16:40:29;1.45;;;1.35;;
16403;SDS011;8311;50.158;8.642;2024-02-26T16:43:24;1.65;;;1.23;;
16403;SDS011;8311;50.158;8.642;2024-02-26T16:46:17;3.20;;;1.60;;
16403;SDS011;8311;50.158;8.642;2024-02-26T16:49:12;2.50;;;1.40;;
16403;SDS011;8311;50.158;8.642;2024-02-26T16:52:06;2.20;;;1.40;;
16403;SDS011;8311;50.158;8.642;2024-02-26T16:54:59;3.75;;;1.40;;
16403;SDS011;8311;50.158;8.642;2024-02-26T16:57:56;3.45;;;1.60;;
16403;SDS011;8311;50.158;8.642;2024-02-26T17:00:50;2.05;;;1.20;;
16403;SDS011;8311;50.158;8.642;2024-02-26T17:03:43;2.70;;;1.52;;
16403;SDS011;8311;50.158;8.642;2024-02-26T17:06:37;2.22;;;1.38;;
16403;SDS011;8311;50.158;8.642;2024-02-26T17:09:31;2.72;;;1.52;;
16403;SDS011;8311;50.158;8.642;2024-02-26T17:12:24;1.88;;;1.27;;
16403;SDS011;8311;50.158;8.642;2024-02-26T17:15:17;2.30;;;1.35;;
16403;SDS011;8311;50.158;8.642;2024-02-26T17:18:10;2.95;;;1.35;;
16403;SDS011;8311;50.158;8.642;2024-02-26T17:21:05;2.22;;;1.33;;
16403;SDS011;8311;50.158;8.642;2024-02-26T17:23:59;2.00;;;1.30;;
16403;SDS011;8311;50.158;8.642;2024-02-26T17:26:54;1.80;;;1.33;;
16403;SDS011;8311;50.158;8.642;2024-02-26T17:29:47;2.58;;;1.55;;
16403;SDS011;8311;50.158;8.642;2024-02-26T17:32:41;2.13;;;1.30;;
16403;SDS011;8311;50.158;8.642;2024-02-26T17:35:34;2.22;;;1.45;;
16403;SDS011;8311;50.158;8.642;2024-02-26T17:38:28;2.60;;;1.42;;
16403;SDS011;8311;50.158;8.642;2024-02-26T17:41:21;1.88;;;1.42;;
16403;SDS011;8311;50.158;8.642;2024-02-26T17:44:16;1.50;;;1.10;;
16403;SDS011;8311;50.158;8.642;2024-02-26T17:47:09;1.27;;;1.05;;
16403;SDS011;8311;50.158;8.642;2024-02-26T17:50:04;2.03;;;1.42;;